createdAt,value
2022-09-26T00:01:46.247Z,85.79
2022-09-26T00:05:22.795Z,85.55
2022-09-26T00:09:19.514Z,85.24
2022-09-26T00:12:39.882Z,85.09
2022-09-26T00:16:17.799Z,85.29
2022-09-26T00:19:53.331Z,85.52
2022-09-26T00:23:30.146Z,85.89
2022-09-26T00:27:25.945Z,85.80
2022-09-26T00:31:12.738Z,85.91
2022-09-26T00:34:33.638Z,85.85
2022-09-26T00:38:10.440Z,85.70
2022-09-26T00:41:47.261Z,85.82
2022-09-26T00:45:28.053Z,86.19
2022-09-26T00:49:26.581Z,86.25
2022-09-26T00:53:09.376Z,86.31
2022-09-26T00:56:35.390Z,86.34
2022-09-26T01:00:10.960Z,86.10
2022-09-26T01:03:47.865Z,86.28
2022-09-26T01:07:24.314Z,86.51
2022-09-26T01:10:59.278Z,86.97
2022-09-26T01:14:39.214Z,87.26
2022-09-26T01:18:11.918Z,87.07
2022-09-26T01:22:23.490Z,86.97
2022-09-26T01:26:12.945Z,86.92
2022-09-26T01:30:19.061Z,87.08
2022-09-26T01:34:13.130Z,87.46
2022-09-26T01:37:59.651Z,87.71
2022-09-26T01:41:36.045Z,87.96
2022-09-26T01:45:21.982Z,87.97
2022-09-26T01:48:50.733Z,87.80
2022-09-26T01:52:50.706Z,87.83
2022-09-26T01:56:36.407Z,87.82
2022-09-26T02:00:01.318Z,87.94
2022-09-26T02:04:04.117Z,87.98
2022-09-26T02:07:52.160Z,88.06
2022-09-26T02:11:31.421Z,88.02
2022-09-26T02:15:15.928Z,88.01
2022-09-26T02:18:53.528Z,88.18
2022-09-26T02:22:15.536Z,88.47
2022-09-26T02:25:51.579Z,88.67
2022-09-26T02:29:28.523Z,88.60
2022-09-26T02:33:24.546Z,88.40
2022-09-26T02:36:46.341Z,88.14
2022-09-26T02:40:28.052Z,88.13
2022-09-26T02:44:39.055Z,88.40
2022-09-26T02:48:30.158Z,88.83
2022-09-26T02:52:01.749Z,88.88
2022-09-26T02:55:55.434Z,88.73
2022-09-26T02:59:26.717Z,88.46
2022-09-26T03:03:24.007Z,88.40
2022-09-26T03:06:49.300Z,88.42
2022-09-26T03:10:21.586Z,88.62
2022-09-26T03:14:20.434Z,88.78
2022-09-26T03:17:54.652Z,88.95
2022-09-26T03:21:18.584Z,88.62
2022-09-26T03:25:20.935Z,88.59
2022-09-26T03:29:19.409Z,88.51
2022-09-26T03:32:40.706Z,88.58
2022-09-26T03:36:17.245Z,88.85
2022-09-26T03:39:53.378Z,88.95
2022-09-26T03:43:31.481Z,88.91
2022-09-26T03:47:26.391Z,89.02
2022-09-26T03:50:47.471Z,88.74
2022-09-26T03:54:24.021Z,88.76
2022-09-26T03:58:01.356Z,88.77
2022-09-26T04:02:00.936Z,89.08
2022-09-26T04:05:42.783Z,89.26
2022-09-26T04:09:03.289Z,89.24
2022-09-26T04:12:40.385Z,89.26
2022-09-26T04:16:36.476Z,89.18
2022-09-26T04:20:05.415Z,89.07
2022-09-26T04:24:01.809Z,89.11
2022-09-26T04:27:27.222Z,89.40
2022-09-26T04:31:00.664Z,89.78
2022-09-26T04:34:38.296Z,89.79
2022-09-26T04:38:13.159Z,89.65
2022-09-26T04:42:08.739Z,89.46
2022-09-26T04:45:47.737Z,89.22
2022-09-26T04:49:09.000Z,89.19
2022-09-26T04:52:45.389Z,89.28
2022-09-26T04:56:41.025Z,89.55
2022-09-26T05:00:02.292Z,89.62
2022-09-26T05:03:39.360Z,89.54
2022-09-26T05:07:16.380Z,89.50
2022-09-26T05:10:55.148Z,89.32
2022-09-26T05:14:29.720Z,89.28
2022-09-26T05:18:25.784Z,89.60
2022-09-26T05:21:47.830Z,89.75
2022-09-26T05:25:42.269Z,89.90
2022-09-26T05:29:08.317Z,89.85
2022-09-26T05:32:49.493Z,89.76
2022-09-26T05:36:27.522Z,89.65
2022-09-26T05:40:21.712Z,89.78
2022-09-26T05:43:45.052Z,89.90
2022-09-26T05:47:41.200Z,90.31
2022-09-26T05:51:21.691Z,90.49
2022-09-26T05:54:43.037Z,90.43
2022-09-26T05:58:27.816Z,90.07
2022-09-26T06:02:17.257Z,89.78
2022-09-26T06:05:50.950Z,89.93
2022-09-26T06:09:46.228Z,90.03
2022-09-26T06:13:15.376Z,90.26
2022-09-26T06:17:08.728Z,90.52
2022-09-26T06:20:29.300Z,90.50
2022-09-26T06:24:06.185Z,90.33
2022-09-26T06:28:01.770Z,90.30
2022-09-26T06:31:42.813Z,90.44
2022-09-26T06:35:03.550Z,90.59
2022-09-26T06:38:42.457Z,90.79
2022-09-26T06:42:37.312Z,90.95
2022-09-26T06:46:36.212Z,91.36
2022-09-26T06:50:07.929Z,91.23
2022-09-26T06:53:45.870Z,91.27
2022-09-26T06:57:22.024Z,91.06
2022-09-26T07:01:17.857Z,91.10
2022-09-26T07:05:18.878Z,91.33
2022-09-26T07:09:03.805Z,91.84
2022-09-26T07:13:08.846Z,91.88
2022-09-26T07:16:30.665Z,91.81
2022-09-26T07:20:14.073Z,91.58
2022-09-26T07:23:58.569Z,91.73
2022-09-26T07:27:31.632Z,91.84
2022-09-26T07:31:07.837Z,92.07
2022-09-26T07:34:44.623Z,92.18
2022-09-26T07:38:40.233Z,92.11
2022-09-26T07:42:03.617Z,92.03
2022-09-26T07:45:57.293Z,92.10
2022-09-26T07:49:37.885Z,92.25
2022-09-26T07:53:18.712Z,92.20
2022-09-26T07:57:19.490Z,92.00
2022-09-26T08:01:16.384Z,91.61
2022-09-26T08:05:00.942Z,91.55
2022-09-26T08:08:34.877Z,91.43
2022-09-26T08:12:22.774Z,91.10
2022-09-26T08:16:38.873Z,90.71
2022-09-26T08:20:19.956Z,90.51
2022-09-26T08:24:01.300Z,90.61
2022-09-26T08:27:38.836Z,89.91
2022-09-26T08:31:34.697Z,89.60
2022-09-26T08:35:14.563Z,89.37
2022-09-26T08:39:29.051Z,89.57
2022-09-26T08:43:28.072Z,89.29
2022-09-26T08:47:36.872Z,88.51
2022-09-26T08:51:46.629Z,88.48
2022-09-26T08:55:21.159Z,88.29
2022-09-26T08:58:52.354Z,87.82
2022-09-26T09:02:24.773Z,87.19
2022-09-26T09:06:12.078Z,85.88
2022-09-26T09:09:35.851Z,85.56
2022-09-26T09:13:40.955Z,85.24
2022-09-26T09:17:57.229Z,84.88
2022-09-26T09:21:57.265Z,84.55
2022-09-26T09:30:17.629Z,84.20
2022-09-26T09:34:31.359Z,84.39
2022-09-26T09:38:18.324Z,84.66
2022-09-26T09:42:13.285Z,84.86
2022-09-26T09:45:51.313Z,84.55
2022-09-26T09:49:22.451Z,83.70
2022-09-26T11:02:51.228Z,78.30
2022-09-26T11:06:31.974Z,78.26
2022-09-26T11:11:28.935Z,77.15
2022-09-26T11:15:13.210Z,76.83
2022-09-26T11:24:10.945Z,77.17
2022-09-26T11:28:11.726Z,76.84
2022-09-26T11:32:05.448Z,76.00
2022-09-26T11:36:52.096Z,74.83
2022-09-26T11:40:31.446Z,74.74
2022-09-26T11:44:50.368Z,74.81
2022-09-26T11:48:38.519Z,75.97
2022-09-26T11:52:48.264Z,75.61
2022-09-26T11:56:46.507Z,75.27
2022-09-26T12:00:16.154Z,74.81
2022-09-26T12:04:14.163Z,75.12
2022-09-26T12:07:58.999Z,75.82
2022-09-26T12:11:55.846Z,75.79
2022-09-26T12:15:27.301Z,75.87
2022-09-26T12:19:15.659Z,74.79
2022-09-26T12:23:06.404Z,74.77
2022-09-26T12:26:58.362Z,72.91
2022-09-26T12:30:49.211Z,71.68
2022-09-26T12:35:43.162Z,71.21
2022-09-26T12:39:56.815Z,68.93
2022-09-26T12:43:48.101Z,68.11
2022-09-26T12:47:37.970Z,67.91
2022-09-26T12:51:22.187Z,66.56
2022-09-26T12:55:23.902Z,66.90
2022-09-26T12:59:16.228Z,66.22
2022-09-26T13:02:50.939Z,66.11
2022-09-26T13:06:33.559Z,66.64
2022-09-26T13:10:52.476Z,67.05
2022-09-26T13:15:08.161Z,67.59
2022-09-26T13:18:59.422Z,67.89
2022-09-26T13:22:49.213Z,68.17
2022-09-26T13:26:50.124Z,68.38
2022-09-26T13:30:26.237Z,68.34
2022-09-26T13:33:59.327Z,68.01
2022-09-26T13:37:41.960Z,67.71
2022-09-26T13:41:47.773Z,67.76
2022-09-26T13:45:26.581Z,67.98
2022-09-26T13:49:33.371Z,65.30
2022-09-26T13:53:26.279Z,61.53
2022-09-26T13:57:29.554Z,58.10
2022-09-26T14:01:27.198Z,55.52
2022-09-26T14:04:50.298Z,54.33
2022-09-26T14:08:43.412Z,55.04
2022-09-26T14:12:51.814Z,54.57
2022-09-26T14:16:35.021Z,55.49
2022-09-26T14:20:00.280Z,56.78
2022-09-26T14:23:41.497Z,58.45
2022-09-26T14:27:12.127Z,59.39
2022-09-26T14:31:23.599Z,60.53
2022-09-26T14:35:39.905Z,61.40
2022-09-26T14:39:02.751Z,62.17
2022-09-26T14:42:43.861Z,62.72
2022-09-26T14:46:35.148Z,63.06
2022-09-26T14:50:33.709Z,63.87
2022-09-26T14:54:26.915Z,65.20
2022-09-26T14:57:48.543Z,65.80
2022-09-26T15:01:46.991Z,66.11
2022-09-26T15:05:11.334Z,66.42
2022-09-26T15:09:11.195Z,66.82
2022-09-26T15:12:56.662Z,67.32
2022-09-26T15:16:44.772Z,68.40
2022-09-26T15:20:13.393Z,69.00
2022-09-26T15:24:21.971Z,69.17
2022-09-26T15:27:46.264Z,69.43
2022-09-26T15:31:21.049Z,69.91
2022-09-26T15:34:57.377Z,70.66
2022-09-26T15:38:33.149Z,71.05
2022-09-26T15:42:48.455Z,71.52
2022-09-26T15:46:28.671Z,72.70
2022-09-26T15:50:01.946Z,73.32
2022-09-26T15:53:42.645Z,73.71
2022-09-26T15:57:08.110Z,73.91
2022-09-26T16:00:45.428Z,74.86
2022-09-26T16:04:40.140Z,75.30
2022-09-26T16:08:26.975Z,76.67
2022-09-26T16:11:53.330Z,76.57
2022-09-26T16:15:45.516Z,76.09
2022-09-26T16:19:07.357Z,76.29
2022-09-26T16:23:05.133Z,76.47
2022-09-26T16:26:46.004Z,76.78
2022-09-26T16:30:29.381Z,76.66
2022-09-26T16:33:53.619Z,76.60
2022-09-26T16:37:27.345Z,76.22
2022-09-26T16:41:56.809Z,76.17
2022-09-26T16:45:14.191Z,76.60
2022-09-26T16:48:51.414Z,77.14
2022-09-26T16:52:36.773Z,77.41
2022-09-26T16:56:01.789Z,77.22
2022-09-26T17:00:43.882Z,77.26
2022-09-26T17:04:10.495Z,76.90
2022-09-26T17:07:41.469Z,76.56
2022-09-26T17:11:37.074Z,76.63
2022-09-26T17:15:25.011Z,76.49
2022-09-26T17:18:45.824Z,76.48
2022-09-26T17:22:24.157Z,76.82
2022-09-26T17:26:00.117Z,77.23
2022-09-26T17:29:40.870Z,77.56
2022-09-26T17:33:13.143Z,77.58
2022-09-26T17:36:50.223Z,77.46
2022-09-26T17:40:32.293Z,77.20
2022-09-26T17:44:04.988Z,77.09
2022-09-26T17:47:40.955Z,77.05
2022-09-26T17:51:17.053Z,77.12
2022-09-26T17:55:12.761Z,77.49
2022-09-26T17:58:34.592Z,77.83
2022-09-26T18:02:32.792Z,77.92
2022-09-26T18:06:13.966Z,78.00
2022-09-26T18:09:53.461Z,77.91
2022-09-26T18:13:37.530Z,77.87
2022-09-26T18:16:59.777Z,77.59
2022-09-26T18:20:56.837Z,77.55
2022-09-26T18:24:36.477Z,77.61
2022-09-26T18:28:01.783Z,77.86
2022-09-26T18:31:38.517Z,78.32
2022-09-26T18:35:24.349Z,78.50
2022-09-26T18:39:06.516Z,78.56
2022-09-26T18:42:27.875Z,78.38
2022-09-26T18:46:05.724Z,78.28
2022-09-26T18:49:42.203Z,78.15
2022-09-26T18:53:20.978Z,78.00
2022-09-26T18:57:12.915Z,77.91
2022-09-26T19:00:36.361Z,78.16
2022-09-26T19:04:23.305Z,78.71
2022-09-26T19:07:48.393Z,79.24
2022-09-26T19:11:26.985Z,79.49
2022-09-26T19:15:20.838Z,79.61
2022-09-26T19:19:01.208Z,79.48
2022-09-26T19:22:21.801Z,79.46
2022-09-26T19:25:58.985Z,78.98
2022-09-26T19:29:58.358Z,78.96
2022-09-26T19:33:19.949Z,78.88
2022-09-26T19:36:56.511Z,79.02
2022-09-26T19:40:32.866Z,79.45
2022-09-26T19:44:09.408Z,79.62
2022-09-26T19:48:05.602Z,79.61
2022-09-26T19:51:26.441Z,79.43
2022-09-26T19:55:11.781Z,79.26
2022-09-26T19:58:43.440Z,79.16
2022-09-26T20:02:20.774Z,79.13
2022-09-26T20:05:53.660Z,79.23
2022-09-26T20:09:31.222Z,79.54
2022-09-26T20:13:07.375Z,79.77
2022-09-26T20:16:43.894Z,80.21
2022-09-26T20:20:24.401Z,80.55
2022-09-26T20:24:18.254Z,80.67
2022-09-26T20:27:39.322Z,80.35
2022-09-26T20:31:34.989Z,80.24
2022-09-26T20:35:00.459Z,80.10
2022-09-26T20:38:43.771Z,80.27
2022-09-26T20:42:34.404Z,80.84
2022-09-26T20:45:55.578Z,81.22
2022-09-26T20:49:57.793Z,81.02
2022-09-26T20:53:37.191Z,80.78
2022-09-26T20:57:18.945Z,80.68
2022-09-26T21:00:58.787Z,80.63
2022-09-26T21:04:27.754Z,80.84
2022-09-26T21:07:58.193Z,81.60
2022-09-26T21:11:33.086Z,82.09
2022-09-26T21:15:31.163Z,82.05
2022-09-26T21:19:18.748Z,81.90
2022-09-26T21:22:40.596Z,81.59
2022-09-26T21:26:19.426Z,81.49
2022-09-26T21:29:54.022Z,81.72
2022-09-26T21:33:34.921Z,82.06
2022-09-26T21:37:26.968Z,82.33
2022-09-26T21:40:52.754Z,82.43
2022-09-26T21:44:31.097Z,82.95
2022-09-26T21:48:19.679Z,83.25
2022-09-26T21:52:23.313Z,83.80
2022-09-26T21:55:50.333Z,83.92
2022-09-26T21:59:23.047Z,83.72
2022-09-26T22:03:16.429Z,83.66
2022-09-26T22:06:56.100Z,83.65
2022-09-26T22:10:36.333Z,83.81
2022-09-26T22:14:15.881Z,84.15
2022-09-26T22:17:55.409Z,84.55
2022-09-26T22:21:15.879Z,84.57
2022-09-26T22:25:11.842Z,84.66
2022-09-26T22:28:51.398Z,84.36
2022-09-26T22:32:13.303Z,84.28
2022-09-26T22:36:08.085Z,84.56
2022-09-26T22:39:28.719Z,84.75
2022-09-26T22:43:05.464Z,84.73
2022-09-26T22:46:42.404Z,84.75
2022-09-26T22:50:19.202Z,84.40
2022-09-26T22:53:55.929Z,84.22
2022-09-26T22:57:32.711Z,84.45
2022-09-26T23:01:12.694Z,84.62
2022-09-26T23:05:05.185Z,84.76
2022-09-26T23:08:26.659Z,84.62
2022-09-26T23:12:04.049Z,84.57
2022-09-26T23:15:39.864Z,84.31
2022-09-26T23:19:35.626Z,84.43
2022-09-26T23:23:15.085Z,84.53
2022-09-26T23:26:35.622Z,84.68
2022-09-26T23:30:31.139Z,84.94
2022-09-26T23:33:53.067Z,84.82
2022-09-26T23:37:28.881Z,84.80
2022-09-26T23:41:11.193Z,84.69
2022-09-26T23:44:42.447Z,84.57
2022-09-26T23:48:19.695Z,84.48
2022-09-26T23:51:57.545Z,84.86
2022-09-26T23:55:52.527Z,85.32
2022-09-26T23:59:13.371Z,85.40
